sensor_id;sensor_type;location;lat;lon;timestamp;P1;durP1;ratioP1;P2;durP2;ratioP2
34876;SDS011;21086;44.780;17.194;2022-07-18T00:02:13;1.88;;;1.13;;
34876;SDS011;21086;44.780;17.194;2022-07-18T00:04:40;4.88;;;1.60;;
34876;SDS011;21086;44.780;17.194;2022-07-18T00:07:07;4.82;;;1.30;;
34876;SDS011;21086;44.780;17.194;2022-07-18T00:09:37;1.85;;;1.40;;
34876;SDS011;21086;44.780;17.194;2022-07-18T00:12:09;2.00;;;1.13;;
34876;SDS011;21086;44.780;17.194;2022-07-18T00:14:37;4.35;;;1.77;;
34876;SDS011;21086;44.780;17.194;2022-07-18T00:17:05;2.17;;;1.10;;
34876;SDS011;21086;44.780;17.194;2022-07-18T00:19:33;2.38;;;1.35;;
34876;SDS011;21086;44.780;17.194;2022-07-18T00:22:01;2.50;;;1.40;;
34876;SDS011;21086;44.780;17.194;2022-07-18T00:24:28;2.15;;;1.30;;
34876;SDS011;21086;44.780;17.194;2022-07-18T00:26:55;2.20;;;1.40;;
34876;SDS011;21086;44.780;17.194;2022-07-18T00:29:22;1.40;;;1.10;;
34876;SDS011;21086;44.780;17.194;2022-07-18T00:31:48;3.58;;;1.30;;
34876;SDS011;21086;44.780;17.194;2022-07-18T00:34:15;2.85;;;1.38;;
34876;SDS011;21086;44.780;17.194;2022-07-18T00:36:43;1.48;;;1.30;;
34876;SDS011;21086;44.780;17.194;2022-07-18T00:39:10;2.50;;;1.05;;
34876;SDS011;21086;44.780;17.194;2022-07-18T00:41:37;1.55;;;0.80;;
34876;SDS011;21086;44.780;17.194;2022-07-18T00:44:04;3.83;;;1.30;;
34876;SDS011;21086;44.780;17.194;2022-07-18T00:46:31;2.70;;;1.33;;
34876;SDS011;21086;44.780;17.194;2022-07-18T00:48:59;1.48;;;0.98;;
34876;SDS011;21086;44.780;17.194;2022-07-18T00:51:25;3.70;;;1.60;;
34876;SDS011;21086;44.780;17.194;2022-07-18T00:53:53;1.92;;;1.33;;
34876;SDS011;21086;44.780;17.194;2022-07-18T00:56:20;4.38;;;1.83;;
34876;SDS011;21086;44.780;17.194;2022-07-18T00:58:48;2.15;;;1.67;;
34876;SDS011;21086;44.780;17.194;2022-07-18T01:01:15;4.80;;;1.63;;
34876;SDS011;21086;44.780;17.194;2022-07-18T01:04:01;3.30;;;1.10;;
34876;SDS011;21086;44.780;17.194;2022-07-18T01:06:27;4.15;;;1.73;;
34876;SDS011;21086;44.780;17.194;2022-07-18T01:08:55;6.07;;;1.33;;
34876;SDS011;21086;44.780;17.194;2022-07-18T01:11:23;2.80;;;1.25;;
34876;SDS011;21086;44.780;17.194;2022-07-18T01:13:51;2.08;;;1.27;;
34876;SDS011;21086;44.780;17.194;2022-07-18T01:16:19;3.42;;;1.23;;
34876;SDS011;21086;44.780;17.194;2022-07-18T01:18:49;4.03;;;1.42;;
34876;SDS011;21086;44.780;17.194;2022-07-18T01:21:17;1.83;;;1.48;;
34876;SDS011;21086;44.780;17.194;2022-07-18T01:23:44;3.00;;;1.65;;
34876;SDS011;21086;44.780;17.194;2022-07-18T01:26:12;3.17;;;1.27;;
34876;SDS011;21086;44.780;17.194;2022-07-18T01:28:40;2.15;;;1.17;;
34876;SDS011;21086;44.780;17.194;2022-07-18T01:31:07;1.98;;;0.90;;
34876;SDS011;21086;44.780;17.194;2022-07-18T01:33:35;2.60;;;1.13;;
34876;SDS011;21086;44.780;17.194;2022-07-18T01:36:03;1.58;;;1.10;;
34876;SDS011;21086;44.780;17.194;2022-07-18T01:38:33;1.55;;;1.05;;
34876;SDS011;21086;44.780;17.194;2022-07-18T01:41:01;2.38;;;1.25;;
34876;SDS011;21086;44.780;17.194;2022-07-18T01:43:28;1.20;;;0.88;;
34876;SDS011;21086;44.780;17.194;2022-07-18T01:45:55;3.97;;;1.40;;
34876;SDS011;21086;44.780;17.194;2022-07-18T01:48:22;1.52;;;1.00;;
34876;SDS011;21086;44.780;17.194;2022-07-18T01:50:51;2.22;;;1.10;;
34876;SDS011;21086;44.780;17.194;2022-07-18T01:53:18;1.05;;;0.75;;
34876;SDS011;21086;44.780;17.194;2022-07-18T01:55:46;1.40;;;1.00;;
34876;SDS011;21086;44.780;17.194;2022-07-18T01:58:13;4.20;;;1.08;;
34876;SDS011;21086;44.780;17.194;2022-07-18T02:00:41;1.27;;;1.13;;
34876;SDS011;21086;44.780;17.194;2022-07-18T02:03:08;6.88;;;0.98;;
34876;SDS011;21086;44.780;17.194;2022-07-18T02:05:35;2.63;;;1.02;;
34876;SDS011;21086;44.780;17.194;2022-07-18T02:08:02;1.40;;;0.90;;
34876;SDS011;21086;44.780;17.194;2022-07-18T02:10:29;2.17;;;1.20;;
34876;SDS011;21086;44.780;17.194;2022-07-18T02:12:56;3.83;;;1.10;;
34876;SDS011;21086;44.780;17.194;2022-07-18T02:15:23;0.90;;;0.80;;
34876;SDS011;21086;44.780;17.194;2022-07-18T02:17:51;2.78;;;1.20;;
34876;SDS011;21086;44.780;17.194;2022-07-18T02:20:18;1.52;;;1.02;;
34876;SDS011;21086;44.780;17.194;2022-07-18T02:22:45;3.42;;;1.20;;
34876;SDS011;21086;44.780;17.194;2022-07-18T02:25:12;3.30;;;0.95;;
34876;SDS011;21086;44.780;17.194;2022-07-18T02:27:39;1.27;;;0.93;;
34876;SDS011;21086;44.780;17.194;2022-07-18T02:30:07;3.25;;;1.15;;
34876;SDS011;21086;44.780;17.194;2022-07-18T02:32:35;2.20;;;1.10;;
34876;SDS011;21086;44.780;17.194;2022-07-18T02:35:06;1.55;;;0.80;;
34876;SDS011;21086;44.780;17.194;2022-07-18T02:37:35;2.38;;;1.13;;
34876;SDS011;21086;44.780;17.194;2022-07-18T02:40:06;2.28;;;1.30;;
34876;SDS011;21086;44.780;17.194;2022-07-18T02:42:34;1.52;;;1.30;;
34876;SDS011;21086;44.780;17.194;2022-07-18T02:45:01;2.88;;;1.00;;
34876;SDS011;21086;44.780;17.194;2022-07-18T02:47:28;1.63;;;1.08;;
34876;SDS011;21086;44.780;17.194;2022-07-18T02:49:55;2.00;;;1.20;;
34876;SDS011;21086;44.780;17.194;2022-07-18T02:52:22;2.22;;;1.10;;
34876;SDS011;21086;44.780;17.194;2022-07-18T02:54:49;1.75;;;1.00;;
34876;SDS011;21086;44.780;17.194;2022-07-18T02:57:16;1.88;;;1.08;;
34876;SDS011;21086;44.780;17.194;2022-07-18T02:59:43;2.20;;;1.00;;
34876;SDS011;21086;44.780;17.194;2022-07-18T03:02:12;1.77;;;0.82;;
34876;SDS011;21086;44.780;17.194;2022-07-18T03:04:38;2.13;;;1.30;;
34876;SDS011;21086;44.780;17.194;2022-07-18T03:07:06;2.58;;;1.20;;
34876;SDS011;21086;44.780;17.194;2022-07-18T03:09:33;4.22;;;1.40;;
34876;SDS011;21086;44.780;17.194;2022-07-18T03:12:00;1.75;;;1.08;;
34876;SDS011;21086;44.780;17.194;2022-07-18T03:14:27;1.65;;;1.02;;
34876;SDS011;21086;44.780;17.194;2022-07-18T03:16:54;2.30;;;1.10;;
34876;SDS011;21086;44.780;17.194;2022-07-18T03:19:21;3.95;;;1.58;;
34876;SDS011;21086;44.780;17.194;2022-07-18T03:21:48;1.98;;;1.08;;
34876;SDS011;21086;44.780;17.194;2022-07-18T03:24:15;1.70;;;1.45;;
34876;SDS011;21086;44.780;17.194;2022-07-18T03:26:42;5.88;;;1.13;;
34876;SDS011;21086;44.780;17.194;2022-07-18T03:29:10;1.42;;;1.10;;
34876;SDS011;21086;44.780;17.194;2022-07-18T03:31:37;3.38;;;1.40;;
34876;SDS011;21086;44.780;17.194;2022-07-18T03:34:04;5.00;;;1.50;;
34876;SDS011;21086;44.780;17.194;2022-07-18T03:36:32;2.72;;;1.13;;
34876;SDS011;21086;44.780;17.194;2022-07-18T03:39:00;3.40;;;1.35;;
34876;SDS011;21086;44.780;17.194;2022-07-18T03:41:27;5.18;;;1.92;;
34876;SDS011;21086;44.780;17.194;2022-07-18T03:43:53;3.03;;;1.30;;
34876;SDS011;21086;44.780;17.194;2022-07-18T03:46:20;2.15;;;1.20;;
34876;SDS011;21086;44.780;17.194;2022-07-18T03:48:48;2.08;;;1.20;;
34876;SDS011;21086;44.780;17.194;2022-07-18T03:51:15;2.40;;;1.50;;
34876;SDS011;21086;44.780;17.194;2022-07-18T03:53:42;1.77;;;1.17;;
34876;SDS011;21086;44.780;17.194;2022-07-18T03:56:10;3.63;;;1.40;;
34876;SDS011;21086;44.780;17.194;2022-07-18T03:58:37;3.65;;;1.30;;
34876;SDS011;21086;44.780;17.194;2022-07-18T04:01:04;1.58;;;1.45;;
34876;SDS011;21086;44.780;17.194;2022-07-18T04:03:31;1.77;;;1.23;;
34876;SDS011;21086;44.780;17.194;2022-07-18T04:05:58;1.98;;;0.95;;
34876;SDS011;21086;44.780;17.194;2022-07-18T04:08:25;1.60;;;0.73;;
34876;SDS011;21086;44.780;17.194;2022-07-18T04:10:52;2.83;;;1.10;;
34876;SDS011;21086;44.780;17.194;2022-07-18T04:13:19;2.42;;;1.40;;
34876;SDS011;21086;44.780;17.194;2022-07-18T04:15:46;2.42;;;1.30;;
34876;SDS011;21086;44.780;17.194;2022-07-18T04:18:13;1.90;;;1.27;;
34876;SDS011;21086;44.780;17.194;2022-07-18T04:20:40;3.10;;;1.35;;
34876;SDS011;21086;44.780;17.194;2022-07-18T04:23:07;1.85;;;1.13;;
34876;SDS011;21086;44.780;17.194;2022-07-18T04:25:37;2.17;;;0.80;;
34876;SDS011;21086;44.780;17.194;2022-07-18T04:28:06;2.35;;;1.00;;
34876;SDS011;21086;44.780;17.194;2022-07-18T04:30:35;1.17;;;0.90;;
34876;SDS011;21086;44.780;17.194;2022-07-18T04:33:05;2.80;;;1.55;;
34876;SDS011;21086;44.780;17.194;2022-07-18T04:35:34;1.10;;;1.00;;
34876;SDS011;21086;44.780;17.194;2022-07-18T04:38:02;5.28;;;1.30;;
34876;SDS011;21086;44.780;17.194;2022-07-18T04:40:30;2.80;;;1.13;;
34876;SDS011;21086;44.780;17.194;2022-07-18T04:42:56;2.15;;;1.25;;
34876;SDS011;21086;44.780;17.194;2022-07-18T04:45:23;1.23;;;1.00;;
34876;SDS011;21086;44.780;17.194;2022-07-18T04:47:51;1.20;;;0.90;;
34876;SDS011;21086;44.780;17.194;2022-07-18T04:50:19;3.97;;;1.17;;
34876;SDS011;21086;44.780;17.194;2022-07-18T04:52:46;1.48;;;1.00;;
34876;SDS011;21086;44.780;17.194;2022-07-18T04:55:14;1.83;;;1.27;;
34876;SDS011;21086;44.780;17.194;2022-07-18T04:57:42;3.58;;;1.13;;
34876;SDS011;21086;44.780;17.194;2022-07-18T05:00:11;1.88;;;1.38;;
34876;SDS011;21086;44.780;17.194;2022-07-18T05:02:40;4.05;;;1.42;;
34876;SDS011;21086;44.780;17.194;2022-07-18T05:05:12;3.78;;;1.27;;
34876;SDS011;21086;44.780;17.194;2022-07-18T05:07:41;8.20;;;1.63;;
34876;SDS011;21086;44.780;17.194;2022-07-18T05:10:10;2.97;;;1.40;;
34876;SDS011;21086;44.780;17.194;2022-07-18T05:12:38;1.58;;;1.27;;
34876;SDS011;21086;44.780;17.194;2022-07-18T05:15:08;1.73;;;1.30;;
34876;SDS011;21086;44.780;17.194;2022-07-18T05:17:36;1.75;;;1.10;;
34876;SDS011;21086;44.780;17.194;2022-07-18T05:20:05;1.65;;;1.20;;
34876;SDS011;21086;44.780;17.194;2022-07-18T05:22:34;2.00;;;1.40;;
34876;SDS011;21086;44.780;17.194;2022-07-18T05:25:01;1.80;;;1.30;;
34876;SDS011;21086;44.780;17.194;2022-07-18T05:27:29;2.17;;;1.40;;
34876;SDS011;21086;44.780;17.194;2022-07-18T05:29:57;3.17;;;1.38;;
34876;SDS011;21086;44.780;17.194;2022-07-18T05:32:26;2.63;;;1.40;;
34876;SDS011;21086;44.780;17.194;2022-07-18T05:34:53;3.38;;;0.95;;
34876;SDS011;21086;44.780;17.194;2022-07-18T05:37:20;2.13;;;1.20;;
34876;SDS011;21086;44.780;17.194;2022-07-18T05:39:47;2.90;;;1.40;;
34876;SDS011;21086;44.780;17.194;2022-07-18T05:42:16;2.13;;;1.23;;
34876;SDS011;21086;44.780;17.194;2022-07-18T05:45:04;12.57;;;1.83;;
34876;SDS011;21086;44.780;17.194;2022-07-18T05:47:33;3.50;;;1.50;;
34876;SDS011;21086;44.780;17.194;2022-07-18T05:50:00;4.40;;;1.73;;
34876;SDS011;21086;44.780;17.194;2022-07-18T05:52:27;2.38;;;1.60;;
34876;SDS011;21086;44.780;17.194;2022-07-18T05:54:55;5.70;;;1.73;;
34876;SDS011;21086;44.780;17.194;2022-07-18T05:57:22;5.32;;;1.85;;
34876;SDS011;21086;44.780;17.194;2022-07-18T05:59:49;3.42;;;1.48;;
34876;SDS011;21086;44.780;17.194;2022-07-18T06:02:15;2.95;;;1.58;;
34876;SDS011;21086;44.780;17.194;2022-07-18T06:04:42;2.33;;;1.40;;
34876;SDS011;21086;44.780;17.194;2022-07-18T06:07:29;1.90;;;1.17;;
34876;SDS011;21086;44.780;17.194;2022-07-18T06:09:56;5.35;;;1.45;;
34876;SDS011;21086;44.780;17.194;2022-07-18T06:12:23;2.80;;;1.67;;
34876;SDS011;21086;44.780;17.194;2022-07-18T06:14:50;1.60;;;1.20;;
34876;SDS011;21086;44.780;17.194;2022-07-18T06:17:17;1.83;;;1.13;;
34876;SDS011;21086;44.780;17.194;2022-07-18T06:19:44;1.35;;;1.23;;
34876;SDS011;21086;44.780;17.194;2022-07-18T06:22:11;2.60;;;1.30;;
34876;SDS011;21086;44.780;17.194;2022-07-18T06:24:38;2.80;;;1.35;;
34876;SDS011;21086;44.780;17.194;2022-07-18T06:27:05;2.70;;;1.20;;
34876;SDS011;21086;44.780;17.194;2022-07-18T06:29:32;2.33;;;1.42;;
34876;SDS011;21086;44.780;17.194;2022-07-18T06:31:59;2.42;;;1.52;;
34876;SDS011;21086;44.780;17.194;2022-07-18T06:34:26;1.50;;;1.20;;
34876;SDS011;21086;44.780;17.194;2022-07-18T06:36:53;3.00;;;1.67;;
34876;SDS011;21086;44.780;17.194;2022-07-18T06:39:19;2.20;;;1.00;;
34876;SDS011;21086;44.780;17.194;2022-07-18T06:41:46;2.53;;;1.15;;
34876;SDS011;21086;44.780;17.194;2022-07-18T06:44:13;2.25;;;1.30;;
34876;SDS011;21086;44.780;17.194;2022-07-18T06:46:40;1.33;;;0.88;;
34876;SDS011;21086;44.780;17.194;2022-07-18T06:49:08;7.88;;;1.20;;
34876;SDS011;21086;44.780;17.194;2022-07-18T06:51:35;2.22;;;1.30;;
34876;SDS011;21086;44.780;17.194;2022-07-18T06:54:02;1.80;;;1.08;;
34876;SDS011;21086;44.780;17.194;2022-07-18T06:56:29;2.28;;;1.48;;
34876;SDS011;21086;44.780;17.194;2022-07-18T06:58:56;3.20;;;1.23;;
34876;SDS011;21086;44.780;17.194;2022-07-18T07:01:23;2.13;;;1.55;;
34876;SDS011;21086;44.780;17.194;2022-07-18T07:03:51;2.20;;;1.30;;
34876;SDS011;21086;44.780;17.194;2022-07-18T07:06:19;5.82;;;1.50;;
34876;SDS011;21086;44.780;17.194;2022-07-18T07:08:46;4.00;;;1.65;;
34876;SDS011;21086;44.780;17.194;2022-07-18T07:11:13;3.80;;;1.55;;
34876;SDS011;21086;44.780;17.194;2022-07-18T07:13:40;3.72;;;1.50;;
34876;SDS011;21086;44.780;17.194;2022-07-18T07:16:07;4.13;;;1.50;;
34876;SDS011;21086;44.780;17.194;2022-07-18T07:18:35;3.50;;;1.55;;
34876;SDS011;21086;44.780;17.194;2022-07-18T07:21:01;4.63;;;1.50;;
34876;SDS011;21086;44.780;17.194;2022-07-18T07:23:28;6.25;;;1.50;;
34876;SDS011;21086;44.780;17.194;2022-07-18T07:25:55;3.92;;;1.35;;
34876;SDS011;21086;44.780;17.194;2022-07-18T07:28:22;4.70;;;2.00;;
34876;SDS011;21086;44.780;17.194;2022-07-18T07:30:49;2.83;;;1.77;;
34876;SDS011;21086;44.780;17.194;2022-07-18T07:33:16;2.13;;;1.60;;
34876;SDS011;21086;44.780;17.194;2022-07-18T07:35:43;2.15;;;1.40;;
34876;SDS011;21086;44.780;17.194;2022-07-18T07:38:10;5.00;;;1.85;;
34876;SDS011;21086;44.780;17.194;2022-07-18T07:40:44;6.22;;;2.35;;
34876;SDS011;21086;44.780;17.194;2022-07-18T07:43:12;2.42;;;1.65;;
34876;SDS011;21086;44.780;17.194;2022-07-18T07:45:41;4.13;;;1.60;;
34876;SDS011;21086;44.780;17.194;2022-07-18T07:48:09;1.77;;;1.23;;
34876;SDS011;21086;44.780;17.194;2022-07-18T07:50:36;5.88;;;1.73;;
34876;SDS011;21086;44.780;17.194;2022-07-18T07:53:03;4.75;;;2.53;;
34876;SDS011;21086;44.780;17.194;2022-07-18T07:55:30;3.60;;;2.80;;
34876;SDS011;21086;44.780;17.194;2022-07-18T07:57:57;5.55;;;1.20;;
34876;SDS011;21086;44.780;17.194;2022-07-18T08:00:25;2.97;;;1.17;;
34876;SDS011;21086;44.780;17.194;2022-07-18T08:02:54;4.35;;;1.80;;
34876;SDS011;21086;44.780;17.194;2022-07-18T08:05:26;3.13;;;1.40;;
34876;SDS011;21086;44.780;17.194;2022-07-18T08:07:54;6.35;;;1.30;;
34876;SDS011;21086;44.780;17.194;2022-07-18T08:10:22;2.30;;;1.60;;
34876;SDS011;21086;44.780;17.194;2022-07-18T08:12:49;3.05;;;1.30;;
34876;SDS011;21086;44.780;17.194;2022-07-18T08:15:16;3.10;;;1.48;;
34876;SDS011;21086;44.780;17.194;2022-07-18T08:17:43;5.80;;;1.10;;
34876;SDS011;21086;44.780;17.194;2022-07-18T08:20:14;1.80;;;1.10;;
34876;SDS011;21086;44.780;17.194;2022-07-18T08:25:30;2.88;;;1.38;;
34876;SDS011;21086;44.780;17.194;2022-07-18T08:27:59;6.00;;;1.60;;
34876;SDS011;21086;44.780;17.194;2022-07-18T08:30:27;1.58;;;0.93;;
34876;SDS011;21086;44.780;17.194;2022-07-18T08:32:56;2.25;;;0.70;;
34876;SDS011;21086;44.780;17.194;2022-07-18T08:35:24;2.55;;;1.10;;
34876;SDS011;21086;44.780;17.194;2022-07-18T08:37:51;4.60;;;1.13;;
34876;SDS011;21086;44.780;17.194;2022-07-18T08:40:18;2.63;;;0.88;;
34876;SDS011;21086;44.780;17.194;2022-07-18T08:42:45;3.17;;;1.15;;
34876;SDS011;21086;44.780;17.194;2022-07-18T08:45:38;2.67;;;1.05;;
34876;SDS011;21086;44.780;17.194;2022-07-18T08:48:09;0.70;;;0.55;;
34876;SDS011;21086;44.780;17.194;2022-07-18T08:50:38;1.08;;;0.80;;
34876;SDS011;21086;44.780;17.194;2022-07-18T08:53:11;1.15;;;0.60;;
34876;SDS011;21086;44.780;17.194;2022-07-18T08:55:39;2.95;;;0.57;;
34876;SDS011;21086;44.780;17.194;2022-07-18T08:58:06;2.10;;;0.75;;
34876;SDS011;21086;44.780;17.194;2022-07-18T09:00:53;1.60;;;0.80;;
34876;SDS011;21086;44.780;17.194;2022-07-18T09:03:20;2.10;;;1.02;;
34876;SDS011;21086;44.780;17.194;2022-07-18T09:05:47;1.77;;;0.82;;
34876;SDS011;21086;44.780;17.194;2022-07-18T09:08:29;2.90;;;0.50;;
34876;SDS011;21086;44.780;17.194;2022-07-18T09:10:58;0.95;;;0.57;;
34876;SDS011;21086;44.780;17.194;2022-07-18T09:16:05;0.90;;;0.70;;
34876;SDS011;21086;44.780;17.194;2022-07-18T09:18:37;2.35;;;0.93;;
34876;SDS011;21086;44.780;17.194;2022-07-18T09:23:36;1.00;;;0.70;;
34876;SDS011;21086;44.780;17.194;2022-07-18T09:26:06;1.67;;;0.85;;
34876;SDS011;21086;44.780;17.194;2022-07-18T09:28:50;2.78;;;0.60;;
34876;SDS011;21086;44.780;17.194;2022-07-18T09:31:39;1.48;;;0.70;;
34876;SDS011;21086;44.780;17.194;2022-07-18T09:34:31;1.13;;;0.65;;
34876;SDS011;21086;44.780;17.194;2022-07-18T09:37:00;8.93;;;0.93;;
34876;SDS011;21086;44.780;17.194;2022-07-18T09:39:27;4.45;;;1.05;;
34876;SDS011;21086;44.780;17.194;2022-07-18T09:42:11;2.88;;;0.80;;
34876;SDS011;21086;44.780;17.194;2022-07-18T09:44:42;1.05;;;0.75;;
34876;SDS011;21086;44.780;17.194;2022-07-18T09:47:09;1.67;;;0.85;;
34876;SDS011;21086;44.780;17.194;2022-07-18T09:49:36;1.17;;;0.60;;
34876;SDS011;21086;44.780;17.194;2022-07-18T09:52:08;1.42;;;0.73;;
34876;SDS011;21086;44.780;17.194;2022-07-18T09:54:37;0.80;;;0.47;;
34876;SDS011;21086;44.780;17.194;2022-07-18T09:57:09;1.23;;;0.75;;
34876;SDS011;21086;44.780;17.194;2022-07-18T09:59:36;3.00;;;0.80;;
34876;SDS011;21086;44.780;17.194;2022-07-18T10:02:10;2.40;;;1.00;;
34876;SDS011;21086;44.780;17.194;2022-07-18T10:04:38;1.67;;;0.52;;
34876;SDS011;21086;44.780;17.194;2022-07-18T10:07:05;3.60;;;0.93;;
34876;SDS011;21086;44.780;17.194;2022-07-18T10:09:32;1.75;;;0.60;;
34876;SDS011;21086;44.780;17.194;2022-07-18T10:12:00;1.58;;;0.70;;
34876;SDS011;21086;44.780;17.194;2022-07-18T10:14:28;3.55;;;0.57;;
34876;SDS011;21086;44.780;17.194;2022-07-18T10:16:56;3.60;;;0.60;;
34876;SDS011;21086;44.780;17.194;2022-07-18T10:19:25;3.10;;;0.70;;
34876;SDS011;21086;44.780;17.194;2022-07-18T10:21:52;4.72;;;0.80;;
34876;SDS011;21086;44.780;17.194;2022-07-18T10:24:20;0.90;;;0.50;;
34876;SDS011;21086;44.780;17.194;2022-07-18T10:29:41;1.58;;;0.45;;
34876;SDS011;21086;44.780;17.194;2022-07-18T10:32:33;2.08;;;0.70;;
34876;SDS011;21086;44.780;17.194;2022-07-18T10:35:00;0.82;;;0.50;;
34876;SDS011;21086;44.780;17.194;2022-07-18T10:37:28;1.15;;;0.65;;
34876;SDS011;21086;44.780;17.194;2022-07-18T10:45:57;2.05;;;0.68;;
34876;SDS011;21086;44.780;17.194;2022-07-18T10:51:08;1.33;;;0.47;;
34876;SDS011;21086;44.780;17.194;2022-07-18T10:58:54;0.82;;;0.50;;
34876;SDS011;21086;44.780;17.194;2022-07-18T11:01:22;1.95;;;0.60;;
34876;SDS011;21086;44.780;17.194;2022-07-18T11:07:06;1.58;;;0.63;;
34876;SDS011;21086;44.780;17.194;2022-07-18T11:09:45;2.20;;;0.80;;
34876;SDS011;21086;44.780;17.194;2022-07-18T11:12:25;2.42;;;0.90;;
34876;SDS011;21086;44.780;17.194;2022-07-18T11:15:07;5.57;;;0.45;;
34876;SDS011;21086;44.780;17.194;2022-07-18T11:17:58;2.20;;;0.75;;
34876;SDS011;21086;44.780;17.194;2022-07-18T11:23:16;4.05;;;0.40;;
34876;SDS011;21086;44.780;17.194;2022-07-18T11:25:50;0.55;;;0.47;;
34876;SDS011;21086;44.780;17.194;2022-07-18T11:28:23;8.23;;;0.50;;
34876;SDS011;21086;44.780;17.194;2022-07-18T11:33:30;1.60;;;0.70;;
34876;SDS011;21086;44.780;17.194;2022-07-18T11:36:06;1.02;;;0.60;;
34876;SDS011;21086;44.780;17.194;2022-07-18T11:38:34;2.05;;;0.50;;
34876;SDS011;21086;44.780;17.194;2022-07-18T11:41:04;1.30;;;0.68;;
34876;SDS011;21086;44.780;17.194;2022-07-18T11:43:32;1.00;;;0.55;;
34876;SDS011;21086;44.780;17.194;2022-07-18T11:46:05;1.08;;;0.45;;
34876;SDS011;21086;44.780;17.194;2022-07-18T11:48:42;1.27;;;0.50;;
34876;SDS011;21086;44.780;17.194;2022-07-18T11:51:11;1.40;;;0.43;;
34876;SDS011;21086;44.780;17.194;2022-07-18T11:53:46;0.57;;;0.40;;
34876;SDS011;21086;44.780;17.194;2022-07-18T11:56:14;2.42;;;0.40;;
34876;SDS011;21086;44.780;17.194;2022-07-18T11:58:43;0.73;;;0.55;;
34876;SDS011;21086;44.780;17.194;2022-07-18T12:01:13;0.85;;;0.50;;
34876;SDS011;21086;44.780;17.194;2022-07-18T12:03:46;1.75;;;0.47;;
34876;SDS011;21086;44.780;17.194;2022-07-18T12:06:15;2.38;;;0.70;;
34876;SDS011;21086;44.780;17.194;2022-07-18T12:08:56;1.35;;;0.70;;
34876;SDS011;21086;44.780;17.194;2022-07-18T12:11:41;2.20;;;0.85;;
34876;SDS011;21086;44.780;17.194;2022-07-18T12:14:36;5.13;;;0.52;;
34876;SDS011;21086;44.780;17.194;2022-07-18T12:17:05;1.15;;;0.50;;
34876;SDS011;21086;44.780;17.194;2022-07-18T12:19:34;1.42;;;0.60;;
34876;SDS011;21086;44.780;17.194;2022-07-18T12:22:06;2.65;;;0.70;;
34876;SDS011;21086;44.780;17.194;2022-07-18T12:24:39;1.30;;;0.45;;
34876;SDS011;21086;44.780;17.194;2022-07-18T12:32:48;2.25;;;0.60;;
34876;SDS011;21086;44.780;17.194;2022-07-18T12:35:23;6.53;;;0.68;;
34876;SDS011;21086;44.780;17.194;2022-07-18T12:40:42;5.53;;;0.60;;
34876;SDS011;21086;44.780;17.194;2022-07-18T12:43:25;0.60;;;0.55;;
34876;SDS011;21086;44.780;17.194;2022-07-18T12:45:55;1.05;;;0.50;;
34876;SDS011;21086;44.780;17.194;2022-07-18T12:48:27;2.90;;;0.80;;
34876;SDS011;21086;44.780;17.194;2022-07-18T12:51:28;0.93;;;0.50;;
34876;SDS011;21086;44.780;17.194;2022-07-18T12:54:27;2.15;;;0.68;;
34876;SDS011;21086;44.780;17.194;2022-07-18T12:56:54;1.35;;;0.40;;
34876;SDS011;21086;44.780;17.194;2022-07-18T12:59:21;1.02;;;0.60;;
34876;SDS011;21086;44.780;17.194;2022-07-18T13:01:55;1.00;;;0.60;;
34876;SDS011;21086;44.780;17.194;2022-07-18T13:04:22;0.40;;;0.30;;
34876;SDS011;21086;44.780;17.194;2022-07-18T13:06:49;1.88;;;0.60;;
34876;SDS011;21086;44.780;17.194;2022-07-18T13:09:16;1.20;;;0.50;;
34876;SDS011;21086;44.780;17.194;2022-07-18T13:11:43;0.50;;;0.30;;
34876;SDS011;21086;44.780;17.194;2022-07-18T13:14:13;2.60;;;0.68;;
34876;SDS011;21086;44.780;17.194;2022-07-18T13:16:42;1.55;;;0.70;;
34876;SDS011;21086;44.780;17.194;2022-07-18T13:19:14;1.05;;;0.50;;
34876;SDS011;21086;44.780;17.194;2022-07-18T13:21:41;4.22;;;0.60;;
34876;SDS011;21086;44.780;17.194;2022-07-18T13:24:10;1.17;;;0.70;;
34876;SDS011;21086;44.780;17.194;2022-07-18T13:26:37;2.20;;;0.57;;
34876;SDS011;21086;44.780;17.194;2022-07-18T13:29:05;0.88;;;0.52;;
34876;SDS011;21086;44.780;17.194;2022-07-18T13:31:34;1.27;;;0.55;;
34876;SDS011;21086;44.780;17.194;2022-07-18T13:34:03;0.70;;;0.45;;
34876;SDS011;21086;44.780;17.194;2022-07-18T13:36:31;0.88;;;0.40;;
34876;SDS011;21086;44.780;17.194;2022-07-18T13:38:59;0.40;;;0.32;;
34876;SDS011;21086;44.780;17.194;2022-07-18T13:41:29;0.60;;;0.40;;
34876;SDS011;21086;44.780;17.194;2022-07-18T13:43:57;4.50;;;0.60;;
34876;SDS011;21086;44.780;17.194;2022-07-18T13:46:24;4.57;;;0.40;;
34876;SDS011;21086;44.780;17.194;2022-07-18T13:48:50;0.30;;;0.20;;
34876;SDS011;21086;44.780;17.194;2022-07-18T13:51:17;1.42;;;0.45;;
34876;SDS011;21086;44.780;17.194;2022-07-18T13:53:44;0.30;;;0.20;;
34876;SDS011;21086;44.780;17.194;2022-07-18T13:56:11;1.15;;;0.30;;
34876;SDS011;21086;44.780;17.194;2022-07-18T13:58:39;4.00;;;0.68;;
34876;SDS011;21086;44.780;17.194;2022-07-18T14:01:05;0.82;;;0.32;;
34876;SDS011;21086;44.780;17.194;2022-07-18T14:03:33;1.17;;;0.30;;
34876;SDS011;21086;44.780;17.194;2022-07-18T14:06:00;1.85;;;0.30;;
34876;SDS011;21086;44.780;17.194;2022-07-18T14:08:27;0.50;;;0.30;;
34876;SDS011;21086;44.780;17.194;2022-07-18T14:10:54;0.95;;;0.38;;
34876;SDS011;21086;44.780;17.194;2022-07-18T14:13:22;0.30;;;0.30;;
34876;SDS011;21086;44.780;17.194;2022-07-18T14:15:49;1.25;;;0.40;;
34876;SDS011;21086;44.780;17.194;2022-07-18T14:18:20;0.77;;;0.20;;
34876;SDS011;21086;44.780;17.194;2022-07-18T14:20:47;0.20;;;0.20;;
34876;SDS011;21086;44.780;17.194;2022-07-18T14:23:14;0.52;;;0.38;;
34876;SDS011;21086;44.780;17.194;2022-07-18T14:25:41;0.75;;;0.50;;
34876;SDS011;21086;44.780;17.194;2022-07-18T14:28:08;2.03;;;0.30;;
34876;SDS011;21086;44.780;17.194;2022-07-18T14:30:35;2.28;;;0.30;;
34876;SDS011;21086;44.780;17.194;2022-07-18T14:33:02;1.38;;;0.40;;
34876;SDS011;21086;44.780;17.194;2022-07-18T14:35:33;0.40;;;0.20;;
34876;SDS011;21086;44.780;17.194;2022-07-18T14:38:00;1.65;;;0.30;;
34876;SDS011;21086;44.780;17.194;2022-07-18T14:40:27;0.70;;;0.30;;
34876;SDS011;21086;44.780;17.194;2022-07-18T14:42:54;1.00;;;0.30;;
34876;SDS011;21086;44.780;17.194;2022-07-18T14:45:20;1.08;;;0.40;;
34876;SDS011;21086;44.780;17.194;2022-07-18T14:47:47;2.78;;;0.40;;
34876;SDS011;21086;44.780;17.194;2022-07-18T14:50:15;3.97;;;0.65;;
34876;SDS011;21086;44.780;17.194;2022-07-18T14:52:41;0.70;;;0.50;;
34876;SDS011;21086;44.780;17.194;2022-07-18T14:55:08;1.92;;;0.40;;
34876;SDS011;21086;44.780;17.194;2022-07-18T14:57:37;0.25;;;0.20;;
34876;SDS011;21086;44.780;17.194;2022-07-18T15:00:06;0.52;;;0.20;;
34876;SDS011;21086;44.780;17.194;2022-07-18T15:02:36;1.88;;;0.40;;
34876;SDS011;21086;44.780;17.194;2022-07-18T15:05:05;0.88;;;0.38;;
34876;SDS011;21086;44.780;17.194;2022-07-18T15:07:33;1.20;;;0.38;;
34876;SDS011;21086;44.780;17.194;2022-07-18T15:10:00;0.38;;;0.20;;
34876;SDS011;21086;44.780;17.194;2022-07-18T15:12:27;2.15;;;0.30;;
34876;SDS011;21086;44.780;17.194;2022-07-18T15:14:54;1.63;;;0.30;;
34876;SDS011;21086;44.780;17.194;2022-07-18T15:17:22;0.70;;;0.40;;
34876;SDS011;21086;44.780;17.194;2022-07-18T15:19:50;1.27;;;0.45;;
34876;SDS011;21086;44.780;17.194;2022-07-18T15:22:17;0.20;;;0.20;;
34876;SDS011;21086;44.780;17.194;2022-07-18T15:24:44;3.53;;;0.30;;
34876;SDS011;21086;44.780;17.194;2022-07-18T15:27:11;1.65;;;0.30;;